sensor_id;sensor_type;location;lat;lon;timestamp;pressure;altitude;pressure_sealevel;temperature;humidity
67015;BME280;1033;52.560;13.374;2023-01-31T00:00:55;100807.38;;;3.17;80.02
67015;BME280;1033;52.560;13.374;2023-01-31T00:03:25;100811.03;;;3.16;80.71
67015;BME280;1033;52.560;13.374;2023-01-31T00:05:56;100809.88;;;3.18;80.51
67015;BME280;1033;52.560;13.374;2023-01-31T00:08:26;100814.41;;;3.18;80.45
67015;BME280;1033;52.560;13.374;2023-01-31T00:11:01;100805.16;;;3.12;80.44
67015;BME280;1033;52.560;13.374;2023-01-31T00:13:30;100817.91;;;3.18;80.63
67015;BME280;1033;52.560;13.374;2023-01-31T00:16:01;100808.19;;;3.17;80.62
67015;BME280;1033;52.560;13.374;2023-01-31T00:18:32;100811.69;;;3.10;81.26
67015;BME280;1033;52.560;13.374;2023-01-31T00:21:14;100822.03;;;3.13;80.91
67015;BME280;1033;52.560;13.374;2023-01-31T00:23:45;100823.88;;;3.12;81.22
67015;BME280;1033;52.560;13.374;2023-01-31T00:26:17;100834.72;;;3.11;81.46
67015;BME280;1033;52.560;13.374;2023-01-31T00:29:43;100838.94;;;3.13;80.93
67015;BME280;1033;52.560;13.374;2023-01-31T00:45:12;100860.84;;;3.17;80.64
67015;BME280;1033;52.560;13.374;2023-01-31T00:47:43;100877.50;;;3.28;80.45
67015;BME280;1033;52.560;13.374;2023-01-31T00:50:15;100874.16;;;3.34;80.30
67015;BME280;1033;52.560;13.374;2023-01-31T00:52:45;100878.91;;;3.40;79.98
67015;BME280;1033;52.560;13.374;2023-01-31T00:55:18;100884.16;;;3.50;79.72
67015;BME280;1033;52.560;13.374;2023-01-31T00:57:49;100886.06;;;3.58;79.22
67015;BME280;1033;52.560;13.374;2023-01-31T01:00:24;100883.38;;;3.58;78.86
67015;BME280;1033;52.560;13.374;2023-01-31T01:02:53;100893.63;;;3.62;78.90
67015;BME280;1033;52.560;13.374;2023-01-31T01:05:25;100900.34;;;3.66;78.34
67015;BME280;1033;52.560;13.374;2023-01-31T01:07:56;100909.72;;;3.70;78.78
67015;BME280;1033;52.560;13.374;2023-01-31T01:10:28;100904.22;;;3.72;78.02
67015;BME280;1033;52.560;13.374;2023-01-31T01:12:58;100908.41;;;3.74;78.18
67015;BME280;1033;52.560;13.374;2023-01-31T01:15:30;100903.03;;;3.74;78.15
67015;BME280;1033;52.560;13.374;2023-01-31T01:18:01;100911.59;;;3.78;78.00
67015;BME280;1033;52.560;13.374;2023-01-31T01:20:33;100911.44;;;3.79;77.77
67015;BME280;1033;52.560;13.374;2023-01-31T01:23:09;100912.19;;;3.89;77.06
67015;BME280;1033;52.560;13.374;2023-01-31T01:38:59;100923.22;;;3.86;77.07
67015;BME280;1033;52.560;13.374;2023-01-31T01:41:31;100926.56;;;3.88;76.89
67015;BME280;1033;52.560;13.374;2023-01-31T01:44:03;100928.03;;;3.83;77.12
67015;BME280;1033;52.560;13.374;2023-01-31T01:46:38;100921.38;;;3.87;76.82
67015;BME280;1033;52.560;13.374;2023-01-31T01:49:18;100931.63;;;3.91;76.45
67015;BME280;1033;52.560;13.374;2023-01-31T01:51:54;100945.47;;;3.87;76.74
67015;BME280;1033;52.560;13.374;2023-01-31T01:54:30;100930.41;;;3.86;76.70
67015;BME280;1033;52.560;13.374;2023-01-31T01:57:07;100946.09;;;3.81;77.25
67015;BME280;1033;52.560;13.374;2023-01-31T01:59:39;100957.66;;;3.81;77.06
67015;BME280;1033;52.560;13.374;2023-01-31T02:02:14;100955.63;;;3.83;77.48
67015;BME280;1033;52.560;13.374;2023-01-31T02:04:48;100968.13;;;3.75;77.74
67015;BME280;1033;52.560;13.374;2023-01-31T02:07:21;100962.16;;;3.81;77.84
67015;BME280;1033;52.560;13.374;2023-01-31T02:10:00;100967.66;;;3.79;77.67
67015;BME280;1033;52.560;13.374;2023-01-31T02:12:32;100968.19;;;3.83;78.66
67015;BME280;1033;52.560;13.374;2023-01-31T02:15:04;100970.66;;;3.76;78.18
67015;BME280;1033;52.560;13.374;2023-01-31T02:17:39;100970.94;;;3.73;78.47
67015;BME280;1033;52.560;13.374;2023-01-31T02:23:33;100988.41;;;3.77;78.68
67015;BME280;1033;52.560;13.374;2023-01-31T02:29:41;101008.50;;;3.81;78.65
67015;BME280;1033;52.560;13.374;2023-01-31T02:32:53;101012.88;;;3.82;78.04
67015;BME280;1033;52.560;13.374;2023-01-31T02:35:35;101011.19;;;3.81;78.13
67015;BME280;1033;52.560;13.374;2023-01-31T02:38:24;101023.34;;;3.76;78.20
67015;BME280;1033;52.560;13.374;2023-01-31T02:41:07;101038.72;;;3.74;77.76
67015;BME280;1033;52.560;13.374;2023-01-31T02:44:19;101024.94;;;3.69;78.32
67015;BME280;1033;52.560;13.374;2023-01-31T02:47:13;101022.59;;;3.66;78.41
67015;BME280;1033;52.560;13.374;2023-01-31T02:49:50;101027.50;;;3.53;78.61
67015;BME280;1033;52.560;13.374;2023-01-31T02:52:30;101023.69;;;3.37;79.51
67015;BME280;1033;52.560;13.374;2023-01-31T02:55:13;101018.41;;;3.28;80.04
67015;BME280;1033;52.560;13.374;2023-01-31T02:58:06;101021.59;;;3.14;80.62
67015;BME280;1033;52.560;13.374;2023-01-31T03:00:40;101011.75;;;3.14;80.87
67015;BME280;1033;52.560;13.374;2023-01-31T03:03:18;101012.09;;;3.01;81.31
67015;BME280;1033;52.560;13.374;2023-01-31T03:09:08;101017.56;;;2.82;82.75
67015;BME280;1033;52.560;13.374;2023-01-31T03:11:54;101005.56;;;2.86;82.55
67015;BME280;1033;52.560;13.374;2023-01-31T03:14:30;101017.03;;;2.79;83.27
67015;BME280;1033;52.560;13.374;2023-01-31T03:17:09;101014.50;;;2.77;83.38
67015;BME280;1033;52.560;13.374;2023-01-31T03:20:08;101014.88;;;2.82;83.53
67015;BME280;1033;52.560;13.374;2023-01-31T03:22:44;101025.34;;;2.76;83.53
67015;BME280;1033;52.560;13.374;2023-01-31T03:25:18;101016.31;;;2.77;83.85
67015;BME280;1033;52.560;13.374;2023-01-31T03:27:58;101013.09;;;2.73;84.06
67015;BME280;1033;52.560;13.374;2023-01-31T03:30:36;101018.44;;;2.73;84.22
67015;BME280;1033;52.560;13.374;2023-01-31T03:33:14;101026.78;;;2.70;84.63
67015;BME280;1033;52.560;13.374;2023-01-31T03:35:51;101040.69;;;2.74;84.26
67015;BME280;1033;52.560;13.374;2023-01-31T03:38:34;101033.09;;;2.69;84.74
67015;BME280;1033;52.560;13.374;2023-01-31T03:41:11;101035.91;;;2.68;84.71
67015;BME280;1033;52.560;13.374;2023-01-31T03:43:53;101036.75;;;2.68;85.15
67015;BME280;1033;52.560;13.374;2023-01-31T03:46:29;101044.69;;;2.60;85.23
67015;BME280;1033;52.560;13.374;2023-01-31T03:49:07;101059.88;;;2.59;85.60
67015;BME280;1033;52.560;13.374;2023-01-31T03:51:40;101055.41;;;2.50;86.05
67015;BME280;1033;52.560;13.374;2023-01-31T03:54:18;101059.59;;;2.53;85.83
67015;BME280;1033;52.560;13.374;2023-01-31T03:56:53;101059.50;;;2.45;86.28
67015;BME280;1033;52.560;13.374;2023-01-31T03:59:28;101061.19;;;2.46;86.20
67015;BME280;1033;52.560;13.374;2023-01-31T04:02:01;101059.06;;;2.49;86.21
67015;BME280;1033;52.560;13.374;2023-01-31T04:04:37;101061.31;;;2.44;86.30
67015;BME280;1033;52.560;13.374;2023-01-31T04:07:09;101071.91;;;2.36;86.92
67015;BME280;1033;52.560;13.374;2023-01-31T04:09:42;101065.72;;;2.36;87.17
67015;BME280;1033;52.560;13.374;2023-01-31T04:12:13;101073.31;;;2.31;87.48
67015;BME280;1033;52.560;13.374;2023-01-31T04:14:46;101065.31;;;2.31;87.37
67015;BME280;1033;52.560;13.374;2023-01-31T04:17:16;101061.94;;;2.29;87.84
67015;BME280;1033;52.560;13.374;2023-01-31T04:19:46;101053.25;;;2.27;88.10
67015;BME280;1033;52.560;13.374;2023-01-31T04:22:16;101060.66;;;2.23;88.66
67015;BME280;1033;52.560;13.374;2023-01-31T04:24:48;101064.19;;;2.24;88.89
67015;BME280;1033;52.560;13.374;2023-01-31T04:27:20;101062.94;;;2.18;89.22
67015;BME280;1033;52.560;13.374;2023-01-31T04:29:50;101049.84;;;2.25;89.32
67015;BME280;1033;52.560;13.374;2023-01-31T04:32:20;101059.16;;;2.21;89.47
67015;BME280;1033;52.560;13.374;2023-01-31T04:34:50;101060.25;;;2.18;90.30
67015;BME280;1033;52.560;13.374;2023-01-31T04:37:21;101071.53;;;2.22;90.47
67015;BME280;1033;52.560;13.374;2023-01-31T04:39:53;101076.88;;;2.12;90.76
67015;BME280;1033;52.560;13.374;2023-01-31T04:42:26;101088.09;;;2.15;91.07
67015;BME280;1033;52.560;13.374;2023-01-31T04:44:56;101086.56;;;2.13;91.35
67015;BME280;1033;52.560;13.374;2023-01-31T04:47:27;101099.09;;;2.12;91.50
67015;BME280;1033;52.560;13.374;2023-01-31T04:49:57;101107.09;;;2.12;91.63
67015;BME280;1033;52.560;13.374;2023-01-31T04:52:27;101111.16;;;2.16;91.64
67015;BME280;1033;52.560;13.374;2023-01-31T04:54:59;101113.53;;;2.19;92.05
67015;BME280;1033;52.560;13.374;2023-01-31T04:57:28;101110.44;;;2.24;92.15
67015;BME280;1033;52.560;13.374;2023-01-31T04:59:58;101116.31;;;2.28;91.99
67015;BME280;1033;52.560;13.374;2023-01-31T05:02:30;101107.75;;;2.34;91.87
67015;BME280;1033;52.560;13.374;2023-01-31T05:05:01;101112.09;;;2.35;91.69
67015;BME280;1033;52.560;13.374;2023-01-31T05:07:34;101114.34;;;2.39;91.70
67015;BME280;1033;52.560;13.374;2023-01-31T05:10:11;101102.13;;;2.37;91.74
67015;BME280;1033;52.560;13.374;2023-01-31T05:12:41;101105.91;;;2.34;92.20
67015;BME280;1033;52.560;13.374;2023-01-31T05:15:12;101110.13;;;2.37;91.97
67015;BME280;1033;52.560;13.374;2023-01-31T05:17:51;101096.78;;;2.37;92.04
67015;BME280;1033;52.560;13.374;2023-01-31T05:20:21;101099.28;;;2.38;92.07
67015;BME280;1033;52.560;13.374;2023-01-31T05:22:51;101102.94;;;2.37;92.82
67015;BME280;1033;52.560;13.374;2023-01-31T05:25:22;101103.66;;;2.39;92.88
67015;BME280;1033;52.560;13.374;2023-01-31T05:27:53;101102.69;;;2.40;92.74
67015;BME280;1033;52.560;13.374;2023-01-31T05:30:23;101098.59;;;2.46;92.88
67015;BME280;1033;52.560;13.374;2023-01-31T05:32:56;101114.00;;;2.52;92.84
67015;BME280;1033;52.560;13.374;2023-01-31T05:35:25;101116.41;;;2.55;92.96
67015;BME280;1033;52.560;13.374;2023-01-31T05:37:56;101106.22;;;2.68;92.36
67015;BME280;1033;52.560;13.374;2023-01-31T05:40:28;101112.69;;;2.75;92.22
67015;BME280;1033;52.560;13.374;2023-01-31T05:42:58;101121.91;;;2.90;91.48
67015;BME280;1033;52.560;13.374;2023-01-31T05:45:31;101126.25;;;2.91;91.31
67015;BME280;1033;52.560;13.374;2023-01-31T05:48:02;101120.72;;;3.02;90.74
67015;BME280;1033;52.560;13.374;2023-01-31T05:50:34;101122.09;;;3.06;90.45
67015;BME280;1033;52.560;13.374;2023-01-31T05:53:11;101113.38;;;3.14;89.94
67015;BME280;1033;52.560;13.374;2023-01-31T05:55:46;101119.72;;;3.31;89.59
67015;BME280;1033;52.560;13.374;2023-01-31T05:58:20;101123.78;;;3.35;89.25
67015;BME280;1033;52.560;13.374;2023-01-31T06:00:49;101126.19;;;3.38;88.85
67015;BME280;1033;52.560;13.374;2023-01-31T06:03:19;101129.53;;;3.40;89.01
67015;BME280;1033;52.560;13.374;2023-01-31T06:05:49;101130.47;;;3.48;88.46
67015;BME280;1033;52.560;13.374;2023-01-31T06:08:19;101136.75;;;3.57;88.24
67015;BME280;1033;52.560;13.374;2023-01-31T06:10:51;101133.38;;;3.55;87.85
67015;BME280;1033;52.560;13.374;2023-01-31T06:13:23;101127.56;;;3.60;87.78
67015;BME280;1033;52.560;13.374;2023-01-31T06:15:53;101124.16;;;3.67;87.68
67015;BME280;1033;52.560;13.374;2023-01-31T06:18:23;101125.72;;;3.60;87.73
67015;BME280;1033;52.560;13.374;2023-01-31T06:20:53;101131.88;;;3.70;87.49
67015;BME280;1033;52.560;13.374;2023-01-31T06:23:23;101126.81;;;3.67;87.45
67015;BME280;1033;52.560;13.374;2023-01-31T06:25:55;101142.88;;;3.67;87.43
67015;BME280;1033;52.560;13.374;2023-01-31T06:28:25;101144.16;;;3.63;88.21
67015;BME280;1033;52.560;13.374;2023-01-31T06:30:55;101146.84;;;3.63;87.98
67015;BME280;1033;52.560;13.374;2023-01-31T06:33:25;101152.56;;;3.68;88.03
67015;BME280;1033;52.560;13.374;2023-01-31T06:36:11;101153.88;;;3.64;87.94
67015;BME280;1033;52.560;13.374;2023-01-31T06:38:47;101157.66;;;3.71;87.77
67015;BME280;1033;52.560;13.374;2023-01-31T06:41:18;101160.59;;;3.68;87.66
67015;BME280;1033;52.560;13.374;2023-01-31T06:43:49;101155.56;;;3.65;88.23
67015;BME280;1033;52.560;13.374;2023-01-31T06:46:19;101158.31;;;3.73;87.85
67015;BME280;1033;52.560;13.374;2023-01-31T06:48:52;101157.47;;;3.73;88.07
67015;BME280;1033;52.560;13.374;2023-01-31T06:51:23;101152.28;;;3.89;87.38
67015;BME280;1033;52.560;13.374;2023-01-31T06:53:53;101159.84;;;3.93;87.39
67015;BME280;1033;52.560;13.374;2023-01-31T06:56:25;101162.78;;;3.82;87.76
67015;BME280;1033;52.560;13.374;2023-01-31T06:58:55;101160.47;;;3.87;87.31
67015;BME280;1033;52.560;13.374;2023-01-31T07:01:25;101158.50;;;3.89;87.63
67015;BME280;1033;52.560;13.374;2023-01-31T07:03:56;101151.44;;;3.88;88.02
67015;BME280;1033;52.560;13.374;2023-01-31T07:06:26;101145.81;;;3.91;88.54
67015;BME280;1033;52.560;13.374;2023-01-31T07:08:56;101148.03;;;3.96;88.41
67015;BME280;1033;52.560;13.374;2023-01-31T07:11:28;101160.72;;;3.94;88.52
67015;BME280;1033;52.560;13.374;2023-01-31T07:13:58;101150.53;;;3.98;89.26
67015;BME280;1033;52.560;13.374;2023-01-31T07:16:28;101146.41;;;4.03;89.00
67015;BME280;1033;52.560;13.374;2023-01-31T07:19:01;101140.44;;;3.91;89.57
67015;BME280;1033;52.560;13.374;2023-01-31T07:21:31;101137.84;;;4.00;90.23
67015;BME280;1033;52.560;13.374;2023-01-31T07:24:03;101140.84;;;3.97;89.81
67015;BME280;1033;52.560;13.374;2023-01-31T07:26:35;101149.91;;;4.04;89.85
67015;BME280;1033;52.560;13.374;2023-01-31T07:29:06;101148.59;;;4.08;89.96
67015;BME280;1033;52.560;13.374;2023-01-31T07:31:36;101141.75;;;4.05;90.11
67015;BME280;1033;52.560;13.374;2023-01-31T07:34:06;101142.63;;;4.14;90.00
67015;BME280;1033;52.560;13.374;2023-01-31T07:36:37;101143.63;;;4.13;89.90
67015;BME280;1033;52.560;13.374;2023-01-31T07:39:09;101137.97;;;4.16;89.92
67015;BME280;1033;52.560;13.374;2023-01-31T07:41:42;101146.06;;;4.24;89.73
67015;BME280;1033;52.560;13.374;2023-01-31T07:44:16;101143.72;;;4.21;90.04
67015;BME280;1033;52.560;13.374;2023-01-31T07:46:46;101141.13;;;4.11;90.15
67015;BME280;1033;52.560;13.374;2023-01-31T07:49:17;101138.13;;;4.14;90.56
67015;BME280;1033;52.560;13.374;2023-01-31T07:51:47;101143.41;;;4.24;90.17
67015;BME280;1033;52.560;13.374;2023-01-31T07:54:19;101139.03;;;4.23;89.79
67015;BME280;1033;52.560;13.374;2023-01-31T07:56:50;101132.53;;;4.25;90.11
67015;BME280;1033;52.560;13.374;2023-01-31T07:59:20;101133.38;;;4.26;90.46
67015;BME280;1033;52.560;13.374;2023-01-31T08:01:50;101137.47;;;4.38;89.90
67015;BME280;1033;52.560;13.374;2023-01-31T08:04:45;101140.31;;;4.36;89.58
67015;BME280;1033;52.560;13.374;2023-01-31T08:07:15;101137.16;;;4.41;90.22
67015;BME280;1033;52.560;13.374;2023-01-31T08:09:45;101132.88;;;4.48;89.27
67015;BME280;1033;52.560;13.374;2023-01-31T08:12:18;101137.72;;;4.45;89.47
67015;BME280;1033;52.560;13.374;2023-01-31T08:14:48;101130.56;;;4.53;88.96
67015;BME280;1033;52.560;13.374;2023-01-31T08:17:19;101129.19;;;4.49;88.75
67015;BME280;1033;52.560;13.374;2023-01-31T08:19:49;101129.50;;;4.46;89.04
67015;BME280;1033;52.560;13.374;2023-01-31T08:22:20;101125.44;;;4.42;89.21
67015;BME280;1033;52.560;13.374;2023-01-31T08:24:56;101126.22;;;4.60;89.30
67015;BME280;1033;52.560;13.374;2023-01-31T08:27:28;101119.22;;;4.59;88.79
67015;BME280;1033;52.560;13.374;2023-01-31T08:29:58;101117.91;;;4.63;88.93
67015;BME280;1033;52.560;13.374;2023-01-31T08:32:28;101113.84;;;4.59;89.14
67015;BME280;1033;52.560;13.374;2023-01-31T08:35:01;101117.78;;;4.73;89.04
67015;BME280;1033;52.560;13.374;2023-01-31T08:37:33;101112.34;;;4.65;89.42
67015;BME280;1033;52.560;13.374;2023-01-31T08:40:05;101105.63;;;4.61;89.63
67015;BME280;1033;52.560;13.374;2023-01-31T08:42:36;101104.50;;;4.63;90.22
67015;BME280;1033;52.560;13.374;2023-01-31T08:45:09;101105.53;;;4.70;89.79
67015;BME280;1033;52.560;13.374;2023-01-31T08:47:39;101111.72;;;4.71;90.10
67015;BME280;1033;52.560;13.374;2023-01-31T08:50:10;101112.25;;;4.74;90.00
67015;BME280;1033;52.560;13.374;2023-01-31T08:52:55;101117.53;;;4.58;89.94
67015;BME280;1033;52.560;13.374;2023-01-31T08:55:26;101115.50;;;4.60;90.67
67015;BME280;1033;52.560;13.374;2023-01-31T08:57:59;101111.34;;;4.66;90.68
67015;BME280;1033;52.560;13.374;2023-01-31T09:00:30;101109.41;;;4.76;90.06
67015;BME280;1033;52.560;13.374;2023-01-31T09:03:00;101109.13;;;4.87;89.71
67015;BME280;1033;52.560;13.374;2023-01-31T09:05:33;101101.94;;;4.88;89.64
67015;BME280;1033;52.560;13.374;2023-01-31T09:08:03;101113.88;;;4.93;89.26
67015;BME280;1033;52.560;13.374;2023-01-31T09:10:33;101097.97;;;5.00;88.40
67015;BME280;1033;52.560;13.374;2023-01-31T09:13:05;101101.59;;;4.91;88.18
67015;BME280;1033;52.560;13.374;2023-01-31T09:15:35;101101.44;;;4.84;88.61
67015;BME280;1033;52.560;13.374;2023-01-31T09:18:14;101093.53;;;4.82;89.13
67015;BME280;1033;52.560;13.374;2023-01-31T09:20:50;101089.25;;;4.98;88.57
67015;BME280;1033;52.560;13.374;2023-01-31T09:23:27;101081.59;;;5.11;88.06
67015;BME280;1033;52.560;13.374;2023-01-31T09:26:02;101081.56;;;5.03;87.83
67015;BME280;1033;52.560;13.374;2023-01-31T09:28:41;101095.00;;;5.11;87.81
67015;BME280;1033;52.560;13.374;2023-01-31T09:31:15;101088.09;;;5.08;86.51
67015;BME280;1033;52.560;13.374;2023-01-31T09:33:50;101077.91;;;5.12;87.18
67015;BME280;1033;52.560;13.374;2023-01-31T09:36:28;101069.53;;;5.23;86.76
67015;BME280;1033;52.560;13.374;2023-01-31T09:39:02;101070.03;;;5.18;86.36
67015;BME280;1033;52.560;13.374;2023-01-31T09:41:36;101073.25;;;5.30;85.39
67015;BME280;1033;52.560;13.374;2023-01-31T09:44:20;101069.25;;;5.34;85.51
67015;BME280;1033;52.560;13.374;2023-01-31T09:47:09;101068.94;;;5.37;84.64
67015;BME280;1033;52.560;13.374;2023-01-31T09:49:53;101057.69;;;5.42;84.76
67015;BME280;1033;52.560;13.374;2023-01-31T09:52:32;101053.84;;;5.52;84.01
67015;BME280;1033;52.560;13.374;2023-01-31T09:55:18;101041.13;;;5.71;83.74
67015;BME280;1033;52.560;13.374;2023-01-31T09:58:15;101043.78;;;5.62;83.65
67015;BME280;1033;52.560;13.374;2023-01-31T10:01:41;101037.25;;;5.81;82.69
67015;BME280;1033;52.560;13.374;2023-01-31T10:04:32;101035.59;;;5.80;81.91
67015;BME280;1033;52.560;13.374;2023-01-31T10:07:27;101033.91;;;5.79;81.97
67015;BME280;1033;52.560;13.374;2023-01-31T10:10:04;101030.22;;;5.56;82.70
67015;BME280;1033;52.560;13.374;2023-01-31T10:12:41;101015.75;;;5.81;82.65
67015;BME280;1033;52.560;13.374;2023-01-31T10:15:21;101018.50;;;5.89;82.03
67015;BME280;1033;52.560;13.374;2023-01-31T10:17:58;101017.31;;;5.92;81.47
67015;BME280;1033;52.560;13.374;2023-01-31T10:20:34;101016.66;;;5.90;81.29
67015;BME280;1033;52.560;13.374;2023-01-31T10:23:14;101003.72;;;5.93;81.64
67015;BME280;1033;52.560;13.374;2023-01-31T10:25:53;100993.63;;;5.87;81.74
67015;BME280;1033;52.560;13.374;2023-01-31T10:28:33;100995.81;;;5.92;81.16
67015;BME280;1033;52.560;13.374;2023-01-31T10:31:11;100998.66;;;5.74;81.66
67015;BME280;1033;52.560;13.374;2023-01-31T10:33:50;100988.25;;;5.79;82.59
67015;BME280;1033;52.560;13.374;2023-01-31T10:36:26;100987.75;;;5.67;82.84
67015;BME280;1033;52.560;13.374;2023-01-31T10:39:01;100969.97;;;5.58;84.27
67015;BME280;1033;52.560;13.374;2023-01-31T10:41:46;100964.09;;;5.63;85.01
67015;BME280;1033;52.560;13.374;2023-01-31T10:44:51;100973.31;;;5.68;85.08
67015;BME280;1033;52.560;13.374;2023-01-31T10:48:14;100960.88;;;5.67;84.89
67015;BME280;1033;52.560;13.374;2023-01-31T11:03:13;100931.97;;;6.18;82.42
67015;BME280;1033;52.560;13.374;2023-01-31T11:05:47;100926.91;;;6.15;82.72
67015;BME280;1033;52.560;13.374;2023-01-31T11:08:24;100912.03;;;5.96;82.01
67015;BME280;1033;52.560;13.374;2023-01-31T11:10:56;100915.25;;;6.00;82.08
67015;BME280;1033;52.560;13.374;2023-01-31T11:13:27;100915.88;;;6.02;82.28
67015;BME280;1033;52.560;13.374;2023-01-31T11:16:00;100910.88;;;5.99;82.23
67015;BME280;1033;52.560;13.374;2023-01-31T11:18:35;100912.88;;;5.97;82.32
67015;BME280;1033;52.560;13.374;2023-01-31T11:21:05;100899.31;;;5.90;82.19
67015;BME280;1033;52.560;13.374;2023-01-31T11:23:36;100889.06;;;5.94;82.21
67015;BME280;1033;52.560;13.374;2023-01-31T11:26:06;100884.97;;;6.06;81.76
67015;BME280;1033;52.560;13.374;2023-01-31T11:28:38;100877.13;;;5.96;81.78
67015;BME280;1033;52.560;13.374;2023-01-31T11:31:20;100870.09;;;5.95;82.87
67015;BME280;1033;52.560;13.374;2023-01-31T11:34:00;100866.88;;;5.92;82.90
67015;BME280;1033;52.560;13.374;2023-01-31T11:36:41;100866.06;;;5.83;84.18
67015;BME280;1033;52.560;13.374;2023-01-31T11:39:26;100858.47;;;6.03;84.56
67015;BME280;1033;52.560;13.374;2023-01-31T11:42:15;100855.09;;;6.01;84.14
67015;BME280;1033;52.560;13.374;2023-01-31T11:44:57;100842.03;;;5.98;84.23
67015;BME280;1033;52.560;13.374;2023-01-31T11:47:38;100848.91;;;6.00;84.29
67015;BME280;1033;52.560;13.374;2023-01-31T11:50:39;100842.50;;;6.01;84.68
67015;BME280;1033;52.560;13.374;2023-01-31T11:53:19;100830.97;;;5.93;84.26
67015;BME280;1033;52.560;13.374;2023-01-31T11:55:54;100831.31;;;5.90;84.69
67015;BME280;1033;52.560;13.374;2023-01-31T11:58:32;100816.56;;;5.78;85.13
67015;BME280;1033;52.560;13.374;2023-01-31T12:01:07;100806.63;;;5.86;84.59
67015;BME280;1033;52.560;13.374;2023-01-31T12:03:48;100803.41;;;5.99;84.07
67015;BME280;1033;52.560;13.374;2023-01-31T12:06:37;100784.16;;;5.87;84.47
67015;BME280;1033;52.560;13.374;2023-01-31T12:09:19;100764.16;;;5.82;85.31
67015;BME280;1033;52.560;13.374;2023-01-31T12:11:57;100766.53;;;5.77;86.01
67015;BME280;1033;52.560;13.374;2023-01-31T12:14:37;100760.53;;;5.66;88.34
67015;BME280;1033;52.560;13.374;2023-01-31T12:17:12;100749.47;;;5.69;89.77
67015;BME280;1033;52.560;13.374;2023-01-31T12:19:57;100741.78;;;5.58;90.62
67015;BME280;1033;52.560;13.374;2023-01-31T12:23:04;100733.69;;;5.66;91.25
67015;BME280;1033;52.560;13.374;2023-01-31T12:25:49;100731.31;;;5.72;90.95
67015;BME280;1033;52.560;13.374;2023-01-31T12:28:36;100728.72;;;5.55;90.42
67015;BME280;1033;52.560;13.374;2023-01-31T12:31:31;100719.34;;;5.43;91.31
67015;BME280;1033;52.560;13.374;2023-01-31T12:34:19;100724.03;;;5.49;92.62
67015;BME280;1033;52.560;13.374;2023-01-31T12:37:05;100715.19;;;5.41;93.10
67015;BME280;1033;52.560;13.374;2023-01-31T12:40:02;100707.78;;;5.43;94.23
67015;BME280;1033;52.560;13.374;2023-01-31T12:42:57;100703.88;;;5.61;94.79
67015;BME280;1033;52.560;13.374;2023-01-31T12:45:38;100703.03;;;5.53;94.77
67015;BME280;1033;52.560;13.374;2023-01-31T12:48:37;100698.56;;;5.45;95.42
67015;BME280;1033;52.560;13.374;2023-01-31T12:51:26;100695.44;;;5.25;96.37
67015;BME280;1033;52.560;13.374;2023-01-31T12:57:32;100682.91;;;5.18;98.80
67015;BME280;1033;52.560;13.374;2023-01-31T13:00:20;100683.72;;;5.18;99.90
67015;BME280;1033;52.560;13.374;2023-01-31T13:03:06;100668.34;;;5.04;100.00
67015;BME280;1033;52.560;13.374;2023-01-31T13:05:43;100672.06;;;5.03;100.00
67015;BME280;1033;52.560;13.374;2023-01-31T13:08:50;100670.84;;;5.06;100.00
67015;BME280;1033;52.560;13.374;2023-01-31T13:12:06;100668.53;;;5.03;100.00
67015;BME280;1033;52.560;13.374;2023-01-31T13:15:39;100660.50;;;4.87;100.00
67015;BME280;1033;52.560;13.374;2023-01-31T13:21:37;100658.63;;;4.95;100.00
67015;BME280;1033;52.560;13.374;2023-01-31T13:24:12;100653.75;;;4.99;100.00
67015;BME280;1033;52.560;13.374;2023-01-31T13:26:44;100642.91;;;4.92;100.00
67015;BME280;1033;52.560;13.374;2023-01-31T13:29:36;100648.59;;;4.97;100.00
67015;BME280;1033;52.560;13.374;2023-01-31T13:32:14;100647.44;;;4.92;100.00
67015;BME280;1033;52.560;13.374;2023-01-31T13:34:50;100645.75;;;4.91;100.00
67015;BME280;1033;52.560;13.374;2023-01-31T13:37:21;100651.28;;;4.89;100.00
67015;BME280;1033;52.560;13.374;2023-01-31T13:39:57;100644.22;;;4.96;100.00
67015;BME280;1033;52.560;13.374;2023-01-31T13:42:28;100638.19;;;4.94;100.00
67015;BME280;1033;52.560;13.374;2023-01-31T13:45:02;100626.66;;;4.94;100.00
67015;BME280;1033;52.560;13.374;2023-01-31T13:48:23;100634.38;;;4.89;100.00
67015;BME280;1033;52.560;13.374;2023-01-31T13:51:58;100628.50;;;4.93;100.00
67015;BME280;1033;52.560;13.374;2023-01-31T13:55:35;100635.38;;;4.88;100.00
67015;BME280;1033;52.560;13.374;2023-01-31T13:59:07;100632.81;;;4.94;100.00
67015;BME280;1033;52.560;13.374;2023-01-31T14:03:00;100625.97;;;4.92;100.00
67015;BME280;1033;52.560;13.374;2023-01-31T14:05:57;100635.03;;;4.91;100.00
67015;BME280;1033;52.560;13.374;2023-01-31T14:09:31;100619.28;;;4.88;100.00
67015;BME280;1033;52.560;13.374;2023-01-31T14:12:37;100622.97;;;4.87;100.00
67015;BME280;1033;52.560;13.374;2023-01-31T14:18:14;100617.09;;;4.91;100.00
67015;BME280;1033;52.560;13.374;2023-01-31T14:22:16;100613.44;;;4.84;100.00
67015;BME280;1033;52.560;13.374;2023-01-31T14:29:53;100605.84;;;4.96;100.00
67015;BME280;1033;52.560;13.374;2023-01-31T14:33:48;100612.91;;;4.97;100.00
67015;BME280;1033;52.560;13.374;2023-01-31T14:37:19;100600.34;;;4.89;100.00
67015;BME280;1033;52.560;13.374;2023-01-31T14:41:01;100594.13;;;4.97;100.00
67015;BME280;1033;52.560;13.374;2023-01-31T14:43:58;100587.41;;;5.01;100.00
67015;BME280;1033;52.560;13.374;2023-01-31T14:47:15;100589.75;;;4.96;100.00
67015;BME280;1033;52.560;13.374;2023-01-31T14:50:24;100596.13;;;4.95;100.00
67015;BME280;1033;52.560;13.374;2023-01-31T14:53:25;100594.09;;;5.05;100.00
67015;BME280;1033;52.560;13.374;2023-01-31T14:56:12;100592.06;;;5.07;100.00
67015;BME280;1033;52.560;13.374;2023-01-31T14:58:47;100584.66;;;5.09;100.00
67015;BME280;1033;52.560;13.374;2023-01-31T15:01:20;100573.78;;;5.10;100.00
67015;BME280;1033;52.560;13.374;2023-01-31T15:03:54;100568.59;;;5.09;100.00
67015;BME280;1033;52.560;13.374;2023-01-31T15:06:36;100572.41;;;5.14;100.00